Time;durP1;ratioP1;P1;durP2;ratioP2;P2;SDS_P1;SDS_P2;PMS_P1;PMS_P2;Temp;Humidity;BMP_temperature;BMP_pressure;BME280_temperature;BME280_humidity;BME280_pressure;Samples;Min_cycle;Max_cycle;Signal;HPM_P1;HPM_P2
2022/08/30 00:03:25;;;;;;;61.22;51.10;;;24.30;57.10;;;;;;4934014;28;95012;-55
2022/08/30 00:05:51;;;;;;;62.00;51.10;;;24.30;57.20;;;;;;4927484;28;90310;-55
2022/08/30 00:08:17;;;;;;;63.30;50.88;;;24.30;57.30;;;;;;4936092;28;89954;-54
2022/08/30 00:10:44;;;;;;;61.40;51.58;;;24.30;57.20;;;;;;4941881;28;90306;-56
2022/08/30 00:13:12;;;;;;;62.75;50.92;;;24.30;57.20;;;;;;4933125;28;90362;-55
2022/08/30 00:15:40;;;;;;;61.65;51.28;;;24.30;57.20;;;;;;4931299;28;90998;-55
2022/08/30 00:18:05;;;;;;;62.45;50.90;;;24.30;57.20;;;;;;4937041;28;90320;-57
2022/08/30 00:20:33;;;;;;;61.53;50.97;;;24.40;57.30;;;;;;4941846;28;89948;-56
2022/08/30 00:22:59;;;;;;;62.13;51.35;;;24.30;57.90;;;;;;4936334;28;89700;-56
2022/08/30 00:25:24;;;;;;;61.42;51.00;;;24.30;57.40;;;;;;4938316;28;95327;-56
2022/08/30 00:27:50;;;;;;;61.92;51.20;;;24.30;57.30;;;;;;4935945;28;90936;-57
2022/08/30 00:30:18;;;;;;;62.25;50.95;;;24.30;57.40;;;;;;4931179;28;91403;-57
2022/08/30 00:32:44;;;;;;;61.05;51.05;;;24.30;57.30;;;;;;4926471;28;91904;-56
2022/08/30 00:35:12;;;;;;;61.20;50.88;;;24.30;57.40;;;;;;4925425;28;90095;-58
2022/08/30 00:37:38;;;;;;;63.05;51.13;;;24.30;57.40;;;;;;4935245;28;89878;-56
2022/08/30 00:40:05;;;;;;;61.95;51.22;;;24.30;57.60;;;;;;4935723;28;90055;-56
2022/08/30 00:42:31;;;;;;;61.03;51.15;;;24.30;57.50;;;;;;4926533;28;90108;-56
2022/08/30 00:44:58;;;;;;;62.08;51.03;;;24.30;57.50;;;;;;4937122;28;90541;-57
2022/08/30 00:47:24;;;;;;;60.67;50.90;;;24.30;57.50;;;;;;4934963;28;91027;-57
2022/08/30 00:49:55;;;;;;;62.50;50.83;;;24.30;57.50;;;;;;4931005;28;90190;-57
2022/08/30 00:52:22;;;;;;;61.78;50.85;;;24.30;57.50;;;;;;4919989;28;91074;-57
2022/08/30 00:54:50;;;;;;;61.00;50.80;;;24.20;57.50;;;;;;4930566;28;90797;-56
2022/08/30 00:57:16;;;;;;;61.08;51.00;;;24.20;57.60;;;;;;4936649;28;91791;-55
2022/08/30 00:59:45;;;;;;;63.05;51.15;;;24.20;57.60;;;;;;4931372;28;89915;-57
2022/08/30 01:02:12;;;;;;;60.78;50.95;;;24.20;57.60;;;;;;4921358;28;93384;-56
2022/08/30 01:04:41;;;;;;;61.30;51.15;;;24.20;57.60;;;;;;4938545;28;89917;-56
2022/08/30 01:07:07;;;;;;;62.00;50.88;;;24.20;57.80;;;;;;4928201;28;90619;-56
2022/08/30 01:09:34;;;;;;;60.95;50.95;;;24.20;57.70;;;;;;4931521;28;92315;-55
2022/08/30 01:12:00;;;;;;;61.25;50.83;;;24.20;57.60;;;;;;4931372;28;92560;-56
2022/08/30 01:14:26;;;;;;;60.65;51.10;;;24.20;57.70;;;;;;4934548;28;89769;-57
2022/08/30 01:16:55;;;;;;;61.38;50.90;;;24.20;57.80;;;;;;4939172;28;90635;-57
2022/08/30 01:19:36;;;;;;;61.22;51.00;;;24.20;57.70;;;;;;4931351;28;90384;-54
2022/08/30 01:22:16;;;;;;;61.20;50.75;;;24.20;57.70;;;;;;4922571;28;90900;-57
2022/08/30 01:24:45;;;;;;;61.50;50.88;;;24.20;57.70;;;;;;4927971;28;90135;-57
2022/08/30 01:27:10;;;;;;;60.75;50.90;;;24.20;57.70;;;;;;4929436;28;90136;-58
2022/08/30 01:29:36;;;;;;;61.88;51.10;;;24.20;57.60;;;;;;4934470;28;90887;-57
2022/08/30 01:32:04;;;;;;;61.20;50.97;;;24.20;57.70;;;;;;4932264;28;89825;-55
2022/08/30 01:34:30;;;;;;;60.83;50.78;;;24.20;57.70;;;;;;4925728;28;89528;-55
2022/08/30 01:36:55;;;;;;;60.47;50.88;;;24.20;57.60;;;;;;4925791;28;90181;-56
2022/08/30 01:39:21;;;;;;;60.83;50.78;;;24.20;57.70;;;;;;4933229;28;91086;-57
2022/08/30 01:41:47;;;;;;;60.55;50.88;;;24.20;57.70;;;;;;4927186;28;91707;-57
2022/08/30 01:44:14;;;;;;;60.88;51.03;;;24.20;57.60;;;;;;4926899;28;90651;-57
2022/08/30 01:46:45;;;;;;;60.80;50.78;;;24.20;57.60;;;;;;4932732;28;90120;-56
2022/08/30 01:49:14;;;;;;;61.92;50.97;;;24.20;57.60;;;;;;4922216;28;95086;-57
2022/08/30 01:51:40;;;;;;;60.30;50.75;;;24.10;57.60;;;;;;4925350;28;91980;-57
2022/08/30 01:54:06;;;;;;;60.33;50.95;;;24.10;57.50;;;;;;4927844;28;90585;-57
2022/08/30 01:56:32;;;;;;;60.95;50.90;;;24.10;57.50;;;;;;4928874;28;95748;-57
2022/08/30 01:58:57;;;;;;;61.53;51.15;;;24.20;57.60;;;;;;4927042;28;91323;-57
2022/08/30 02:01:25;;;;;;;60.42;50.72;;;24.10;57.50;;;;;;4931879;28;94882;-55
2022/08/30 02:03:53;;;;;;;61.33;51.03;;;24.10;57.70;;;;;;4925282;28;90242;-57
2022/08/30 02:06:20;;;;;;;60.90;50.97;;;24.10;57.70;;;;;;4928424;28;91146;-57
2022/08/30 02:08:46;;;;;;;60.17;50.55;;;24.10;57.60;;;;;;4926471;28;90655;-57
2022/08/30 02:11:12;;;;;;;60.67;50.85;;;24.10;57.60;;;;;;4927785;28;92041;-56
2022/08/30 02:13:40;;;;;;;60.78;50.95;;;24.10;57.70;;;;;;4931208;28;91606;-55
2022/08/30 02:16:08;;;;;;;60.55;50.47;;;24.10;57.60;;;;;;4935599;28;89746;-56
2022/08/30 02:18:35;;;;;;;62.08;51.20;;;24.10;57.60;;;;;;4923316;28;90261;-57
2022/08/30 02:21:02;;;;;;;60.53;50.78;;;24.10;57.60;;;;;;4925762;28;89863;-55
2022/08/30 02:23:27;;;;;;;61.47;50.90;;;24.10;57.60;;;;;;4933065;28;89722;-57
2022/08/30 02:25:53;;;;;;;60.47;50.70;;;24.10;57.60;;;;;;4925879;28;90251;-56
2022/08/30 02:28:19;;;;;;;60.50;50.95;;;24.10;57.50;;;;;;4926012;28;94028;-56
2022/08/30 02:30:46;;;;;;;60.42;50.63;;;24.10;57.50;;;;;;4918063;28;91370;-57
2022/08/30 02:33:12;;;;;;;60.22;50.92;;;24.10;57.40;;;;;;4924619;28;90074;-57
2022/08/30 02:35:37;;;;;;;61.17;50.95;;;24.10;57.40;;;;;;4924835;28;90491;-57
2022/08/30 02:38:06;;;;;;;61.13;50.75;;;24.10;57.40;;;;;;4932005;28;95351;-58
2022/08/30 02:40:32;;;;;;;60.75;50.92;;;24.10;57.40;;;;;;4918811;28;89779;-57
2022/08/30 02:42:58;;;;;;;60.47;50.72;;;24.10;57.40;;;;;;4937437;28;90113;-57
2022/08/30 02:45:24;;;;;;;60.00;50.47;;;24.10;57.30;;;;;;4924562;28;91020;-54
2022/08/30 02:47:50;;;;;;;60.85;51.08;;;24.10;57.40;;;;;;4928222;28;89939;-56
2022/08/30 02:50:16;;;;;;;60.78;50.70;;;24.10;57.40;;;;;;4929548;28;89831;-57
2022/08/30 02:52:42;;;;;;;60.65;50.53;;;24.00;57.30;;;;;;4923962;28;90356;-57
2022/08/30 02:55:09;;;;;;;60.42;50.80;;;24.00;57.40;;;;;;4925890;28;90966;-55
2022/08/30 02:57:35;;;;;;;61.17;50.83;;;24.00;57.40;;;;;;4925235;28;92435;-58
2022/08/30 03:00:02;;;;;;;61.20;50.80;;;24.00;57.40;;;;;;4932383;28;90330;-57
2022/08/30 03:02:29;;;;;;;61.08;51.20;;;24.10;57.40;;;;;;4927653;28;90291;-56
2022/08/30 03:04:56;;;;;;;61.65;51.13;;;24.10;57.40;;;;;;4923639;28;90527;-56
2022/08/30 03:07:22;;;;;;;62.08;51.13;;;24.10;57.40;;;;;;4926884;28;89629;-57
2022/08/30 03:09:47;;;;;;;60.78;50.70;;;24.00;57.30;;;;;;4931046;28;91003;-57
2022/08/30 03:12:13;;;;;;;60.17;50.72;;;24.00;57.40;;;;;;4926067;28;88916;-57
2022/08/30 03:14:38;;;;;;;61.00;50.80;;;24.00;57.30;;;;;;4932695;28;90060;-56
2022/08/30 03:17:06;;;;;;;62.28;51.03;;;24.00;57.20;;;;;;4930549;28;90331;-57
2022/08/30 03:19:35;;;;;;;62.63;51.08;;;24.00;57.20;;;;;;4926780;28;90787;-57
2022/08/30 03:22:01;;;;;;;61.25;50.80;;;24.00;57.20;;;;;;4922920;28;89951;-56
2022/08/30 03:24:27;;;;;;;60.97;50.85;;;24.00;57.10;;;;;;4926587;28;90342;-56
2022/08/30 03:26:52;;;;;;;59.80;50.65;;;24.00;57.20;;;;;;4928121;28;90151;-55
2022/08/30 03:29:18;;;;;;;61.67;50.53;;;24.00;57.30;;;;;;4931328;28;92746;-57
2022/08/30 03:31:44;;;;;;;60.47;50.70;;;24.00;57.30;;;;;;4925051;28;89986;-57
2022/08/30 03:34:10;;;;;;;63.35;50.97;;;24.00;57.30;;;;;;4936205;28;90090;-57
2022/08/30 03:36:38;;;;;;;61.60;50.92;;;23.90;57.30;;;;;;4932363;28;89948;-55
2022/08/30 03:39:05;;;;;;;60.83;50.72;;;24.00;57.30;;;;;;4921045;28;91054;-57
2022/08/30 03:41:31;;;;;;;62.60;50.88;;;24.00;57.40;;;;;;4927902;28;91338;-59
2022/08/30 03:43:58;;;;;;;59.80;50.67;;;24.00;57.40;;;;;;4927520;28;91235;-57
2022/08/30 03:46:24;;;;;;;61.42;50.97;;;23.90;57.30;;;;;;4931411;28;91301;-56
2022/08/30 03:48:51;;;;;;;60.88;50.80;;;23.90;57.20;;;;;;4932264;28;96059;-56
2022/08/30 03:51:17;;;;;;;61.25;50.92;;;24.00;57.40;;;;;;4929414;28;90724;-57
2022/08/30 03:53:43;;;;;;;61.40;50.85;;;24.00;57.30;;;;;;4932817;28;89892;-57
2022/08/30 03:56:09;;;;;;;60.90;50.83;;;23.90;57.80;;;;;;4921518;28;90465;-57
2022/08/30 03:58:35;;;;;;;60.22;50.72;;;23.90;57.20;;;;;;4930927;28;91538;-57
2022/08/30 04:01:01;;;;;;;60.50;50.78;;;23.90;57.30;;;;;;4925630;28;90023;-56
2022/08/30 04:03:26;;;;;;;60.40;51.03;;;23.90;57.30;;;;;;4928275;28;91216;-57
2022/08/30 04:05:54;;;;;;;61.30;50.80;;;23.90;57.00;;;;;;4929435;28;90658;-57
2022/08/30 04:08:20;;;;;;;61.25;50.92;;;23.90;57.20;;;;;;4929126;28;91917;-56
2022/08/30 04:10:46;;;;;;;60.75;50.78;;;23.90;57.20;;;;;;4931790;28;89956;-57
2022/08/30 04:13:13;;;;;;;60.88;50.88;;;24.00;57.20;;;;;;4935592;28;90382;-57
2022/08/30 04:15:39;;;;;;;59.88;50.63;;;23.90;57.20;;;;;;4925060;28;93853;-55
2022/08/30 04:18:05;;;;;;;67.90;52.13;;;24.00;57.20;;;;;;4936371;28;91363;-57
2022/08/30 04:20:31;;;;;;;64.15;51.33;;;23.90;57.20;;;;;;4930033;28;90508;-56
2022/08/30 04:22:56;;;;;;;60.92;50.75;;;23.90;57.40;;;;;;4934481;28;92739;-57
2022/08/30 04:25:22;;;;;;;66.43;51.63;;;23.90;57.20;;;;;;4929404;28;91667;-57
2022/08/30 04:27:48;;;;;;;64.55;51.85;;;23.90;57.20;;;;;;4935227;28;89593;-57
2022/08/30 04:30:17;;;;;;;63.38;51.45;;;23.90;57.30;;;;;;4934207;28;91289;-57
2022/08/30 04:32:44;;;;;;;65.82;51.38;;;23.90;57.40;;;;;;4933321;28;92985;-56
2022/08/30 04:35:11;;;;;;;65.07;51.97;;;23.90;57.40;;;;;;4921252;28;90213;-56
2022/08/30 04:37:37;;;;;;;65.38;51.95;;;23.90;57.40;;;;;;4924555;28;91747;-56
2022/08/30 04:40:04;;;;;;;62.85;51.63;;;23.80;57.10;;;;;;4932205;28;90863;-55
2022/08/30 04:42:32;;;;;;;62.72;51.33;;;23.80;57.30;;;;;;4929864;28;90851;-57
2022/08/30 04:45:00;;;;;;;62.85;51.25;;;23.80;57.20;;;;;;4934865;28;90070;-54
2022/08/30 04:47:26;;;;;;;65.43;51.05;;;23.90;57.20;;;;;;4920557;28;90154;-57
2022/08/30 04:49:52;;;;;;;62.63;51.38;;;23.90;57.20;;;;;;4934152;28;88950;-57
2022/08/30 04:52:18;;;;;;;67.57;52.78;;;23.90;57.20;;;;;;4923948;28;90944;-55
2022/08/30 04:54:44;;;;;;;67.15;51.75;;;23.90;57.60;;;;;;4922636;28;91413;-55
2022/08/30 04:57:09;;;;;;;69.80;53.47;;;23.90;57.40;;;;;;4937116;28;91576;-56
2022/08/30 04:59:36;;;;;;;81.57;55.00;;;23.90;57.90;;;;;;4932014;28;90550;-57
2022/08/30 05:02:02;;;;;;;69.88;53.78;;;23.90;58.80;;;;;;4930180;28;90314;-56
2022/08/30 05:04:28;;;;;;;73.78;54.50;;;23.90;58.30;;;;;;4927898;28;91268;-56
2022/08/30 05:06:53;;;;;;;75.10;54.15;;;23.90;58.20;;;;;;4926943;28;90303;-57
2022/08/30 05:09:20;;;;;;;71.95;54.15;;;23.90;58.30;;;;;;4931128;28;89958;-55
2022/08/30 05:11:46;;;;;;;68.38;53.33;;;23.90;58.20;;;;;;4930448;28;89556;-57
2022/08/30 05:14:12;;;;;;;74.03;53.80;;;23.90;58.10;;;;;;4931374;28;89927;-57
2022/08/30 05:16:40;;;;;;;70.18;53.10;;;23.90;58.00;;;;;;4934420;28;92651;-57
2022/08/30 05:19:06;;;;;;;70.82;53.42;;;24.00;57.90;;;;;;4926648;28;89680;-57
2022/08/30 05:21:32;;;;;;;67.13;52.85;;;24.00;57.80;;;;;;4929223;28;93194;-53
2022/08/30 05:23:59;;;;;;;68.65;53.13;;;24.00;57.80;;;;;;4885064;28;1226205;-57
2022/08/30 05:26:31;;;;;;;66.32;52.50;;;24.00;57.90;;;;;;4938294;28;89959;-56
2022/08/30 05:28:57;;;;;;;66.15;52.10;;;24.00;57.70;;;;;;4937394;28;89777;-57
2022/08/30 05:31:34;;;;;;;65.45;52.40;;;24.00;57.60;;;;;;4936172;28;90794;-57
2022/08/30 05:34:01;;;;;;;68.07;52.15;;;24.00;57.60;;;;;;4928595;28;89861;-56
2022/08/30 05:36:29;;;;;;;67.13;52.30;;;24.00;57.50;;;;;;4936961;28;89689;-55
2022/08/30 05:38:55;;;;;;;65.30;52.22;;;24.00;57.50;;;;;;4932327;28;88902;-55
2022/08/30 05:41:23;;;;;;;69.35;52.30;;;24.00;57.50;;;;;;4931846;28;91289;-57
2022/08/30 05:43:52;;;;;;;69.05;52.83;;;24.00;57.50;;;;;;4929669;28;90375;-56
2022/08/30 05:46:18;;;;;;;64.40;52.08;;;24.00;57.50;;;;;;4937170;28;93671;-55
2022/08/30 05:48:45;;;;;;;66.10;52.03;;;24.00;57.50;;;;;;4934341;28;91905;-57
2022/08/30 05:51:16;;;;;;;66.47;51.88;;;24.00;57.30;;;;;;4926619;28;90311;-57
2022/08/30 05:53:42;;;;;;;64.97;51.90;;;24.00;57.30;;;;;;4929316;28;90162;-56
2022/08/30 05:56:10;;;;;;;68.30;52.17;;;24.00;57.20;;;;;;4944030;28;90329;-57
2022/08/30 05:58:36;;;;;;;64.30;51.88;;;24.00;57.30;;;;;;4947056;28;90358;-57
2022/08/30 06:01:03;;;;;;;64.60;51.88;;;24.00;57.30;;;;;;4934492;28;89996;-54
2022/08/30 06:03:31;;;;;;;63.22;51.78;;;24.00;57.40;;;;;;4929930;28;90515;-57
2022/08/30 06:05:58;;;;;;;65.43;52.00;;;24.00;57.30;;;;;;4939308;28;89922;-57
2022/08/30 06:08:23;;;;;;;66.55;52.35;;;24.00;57.30;;;;;;4923723;28;89981;-57
2022/08/30 06:10:49;;;;;;;63.35;51.65;;;24.00;57.20;;;;;;4933635;28;93113;-55
2022/08/30 06:13:15;;;;;;;65.25;52.15;;;24.00;57.20;;;;;;4934032;28;91131;-57
2022/08/30 06:15:45;;;;;;;64.20;51.88;;;24.00;57.30;;;;;;4939674;28;89951;-54
2022/08/30 06:18:11;;;;;;;62.72;51.45;;;24.00;57.20;;;;;;4929781;28;90098;-56
2022/08/30 06:20:41;;;;;;;61.85;51.33;;;24.00;57.10;;;;;;4927586;28;90182;-56
2022/08/30 06:23:08;;;;;;;62.85;51.63;;;24.00;57.20;;;;;;4938213;28;90331;-57
2022/08/30 06:25:36;;;;;;;62.50;51.80;;;24.00;57.10;;;;;;4934601;28;89926;-57
2022/08/30 06:28:04;;;;;;;66.00;51.90;;;24.00;57.20;;;;;;4928027;28;89797;-56
2022/08/30 06:30:30;;;;;;;63.13;51.75;;;24.00;57.20;;;;;;4934142;28;90100;-57
2022/08/30 06:32:55;;;;;;;66.18;51.42;;;24.00;57.20;;;;;;4928035;28;90478;-55
2022/08/30 06:35:21;;;;;;;63.60;51.47;;;24.00;57.20;;;;;;4932363;28;90886;-57
2022/08/30 06:37:46;;;;;;;62.05;51.50;;;24.00;57.10;;;;;;4927613;28;89884;-57
2022/08/30 06:40:13;;;;;;;64.43;51.72;;;24.00;57.10;;;;;;4927747;28;90018;-57
2022/08/30 06:42:38;;;;;;;63.22;51.75;;;24.00;57.10;;;;;;4936263;28;90066;-57
2022/08/30 06:45:05;;;;;;;64.97;51.88;;;24.00;57.00;;;;;;4935527;28;95623;-56
2022/08/30 06:47:30;;;;;;;65.43;51.90;;;24.10;57.10;;;;;;4929374;28;90988;-55
2022/08/30 06:49:57;;;;;;;65.18;51.85;;;24.10;57.10;;;;;;4930546;28;90767;-57
2022/08/30 06:52:23;;;;;;;63.58;51.92;;;24.00;57.00;;;;;;4935280;28;91784;-56
2022/08/30 06:54:49;;;;;;;64.45;51.78;;;24.00;57.00;;;;;;4936539;28;89829;-57
2022/08/30 06:57:15;;;;;;;64.05;51.65;;;24.10;57.00;;;;;;4928793;28;91832;-57
2022/08/30 06:59:41;;;;;;;62.63;51.45;;;24.10;56.90;;;;;;4930743;28;90859;-53
2022/08/30 07:02:07;;;;;;;63.05;51.22;;;24.10;56.80;;;;;;4932652;28;90520;-57
2022/08/30 07:04:33;;;;;;;62.60;51.17;;;24.10;56.90;;;;;;4929684;28;95070;-55
2022/08/30 07:06:59;;;;;;;61.28;51.30;;;24.10;56.80;;;;;;4931284;28;92077;-56
2022/08/30 07:09:25;;;;;;;63.78;51.70;;;24.10;56.90;;;;;;4937405;28;89810;-55
2022/08/30 07:11:51;;;;;;;63.28;51.67;;;24.10;56.80;;;;;;4930395;28;89788;-55
2022/08/30 07:14:17;;;;;;;62.25;51.55;;;24.20;56.80;;;;;;4934777;28;90323;-57
2022/08/30 07:16:44;;;;;;;62.00;51.35;;;24.10;56.70;;;;;;4933486;28;89934;-55
2022/08/30 07:19:10;;;;;;;64.13;51.88;;;24.20;56.60;;;;;;4931378;28;89957;-56
2022/08/30 07:21:44;;;;;;;64.53;51.65;;;24.20;56.50;;;;;;4935943;28;89821;-57
2022/08/30 07:24:11;;;;;;;62.65;51.47;;;24.30;56.30;;;;;;4933509;28;90462;-57
2022/08/30 07:26:40;;;;;;;64.38;51.50;;;24.30;56.10;;;;;;4929442;28;90239;-57
2022/08/30 07:29:07;;;;;;;63.83;51.47;;;24.30;55.90;;;;;;4934354;28;89754;-56
2022/08/30 07:31:34;;;;;;;63.63;51.80;;;24.40;55.80;;;;;;4926933;28;89588;-54
2022/08/30 07:34:04;;;;;;;62.75;51.67;;;24.50;55.60;;;;;;4931720;28;91202;-56
2022/08/30 07:36:30;;;;;;;64.22;51.80;;;24.50;55.40;;;;;;4930600;28;90530;-56
2022/08/30 07:38:56;;;;;;;62.80;51.40;;;24.50;55.90;;;;;;4936553;28;90132;-55
2022/08/30 07:41:30;;;;;;;61.58;51.50;;;24.50;55.10;;;;;;4927206;28;90910;-53
2022/08/30 07:43:57;;;;;;;64.70;51.35;;;24.60;55.10;;;;;;4931344;28;89997;-55
2022/08/30 07:46:24;;;;;;;63.65;51.67;;;24.60;55.00;;;;;;4932985;28;90255;-56
2022/08/30 07:48:50;;;;;;;63.78;51.33;;;24.70;54.90;;;;;;4936308;28;91350;-57
2022/08/30 07:51:19;;;;;;;62.50;51.40;;;24.70;54.80;;;;;;4940078;28;90842;-56
2022/08/30 07:53:45;;;;;;;64.00;51.75;;;24.70;54.70;;;;;;4921882;28;90029;-57
2022/08/30 07:56:11;;;;;;;61.53;51.40;;;24.80;54.60;;;;;;4932122;28;90530;-56
2022/08/30 07:58:37;;;;;;;62.45;51.58;;;24.80;54.60;;;;;;4941128;28;90155;-53
2022/08/30 08:01:07;;;;;;;62.03;51.85;;;24.80;54.50;;;;;;4925848;28;96070;-55
2022/08/30 08:03:34;;;;;;;66.27;51.73;;;24.80;54.50;;;;;;4928006;28;89531;-56
2022/08/30 08:06:02;;;;;;;63.67;51.88;;;24.80;54.50;;;;;;4925523;28;89115;-57
2022/08/30 08:08:27;;;;;;;64.05;51.78;;;24.80;54.60;;;;;;4928872;28;92146;-55
2022/08/30 08:10:53;;;;;;;65.53;51.85;;;24.80;54.50;;;;;;4937956;28;90486;-57
2022/08/30 08:13:19;;;;;;;63.63;51.75;;;24.80;54.50;;;;;;4928157;28;93001;-56
2022/08/30 08:15:45;;;;;;;62.47;51.63;;;24.90;54.60;;;;;;4934887;28;90069;-57
2022/08/30 08:18:10;;;;;;;62.70;51.63;;;24.90;54.50;;;;;;4937620;28;90261;-55
2022/08/30 08:20:36;;;;;;;63.15;52.05;;;24.90;54.40;;;;;;4922332;28;90891;-57
2022/08/30 08:23:03;;;;;;;64.00;51.63;;;25.00;54.50;;;;;;4926636;28;90557;-53
2022/08/30 08:25:29;;;;;;;63.60;51.58;;;25.00;54.50;;;;;;4933564;28;91923;-57
2022/08/30 08:27:55;;;;;;;63.15;51.97;;;25.00;54.60;;;;;;4933314;28;89884;-54
2022/08/30 08:30:22;;;;;;;65.05;51.95;;;24.90;54.40;;;;;;4932761;28;94278;-57
2022/08/30 08:32:49;;;;;;;63.75;51.75;;;25.00;54.50;;;;;;4936008;28;89552;-57
2022/08/30 08:35:16;;;;;;;63.17;51.65;;;25.00;54.50;;;;;;4936454;28;90075;-57
2022/08/30 08:37:43;;;;;;;63.50;51.85;;;25.00;54.50;;;;;;4945120;28;91933;-58
2022/08/30 08:40:14;;;;;;;66.07;52.05;;;25.10;54.40;;;;;;4935027;28;89971;-57
2022/08/30 08:43:14;;;;;;;63.35;51.67;;;25.10;54.50;;;;;;4933782;28;89596;-57
2022/08/30 08:45:49;;;;;;;67.50;51.75;;;25.00;54.40;;;;;;4930376;28;90397;-57
2022/08/30 08:48:24;;;;;;;62.50;51.63;;;25.10;54.40;;;;;;4933554;28;90419;-56
2022/08/30 08:53:35;;;;;;;63.15;51.35;;;25.20;54.50;;;;;;4933982;28;90374;-54
2022/08/30 08:56:10;;;;;;;63.75;51.97;;;25.20;54.40;;;;;;4933675;28;88624;-57
2022/08/30 08:58:46;;;;;;;64.65;51.60;;;25.20;54.30;;;;;;4931323;28;90606;-57
2022/08/30 09:01:15;;;;;;;63.83;51.88;;;25.20;54.30;;;;;;4923360;28;90866;-56
2022/08/30 09:03:41;;;;;;;63.08;51.95;;;25.30;54.30;;;;;;4939468;28;90550;-55
2022/08/30 09:06:36;;;;;;;64.95;51.65;;;25.30;54.30;;;;;;4931788;28;94286;-56
2022/08/30 09:09:02;;;;;;;62.92;51.85;;;25.30;54.30;;;;;;4932898;28;90666;-57
2022/08/30 09:11:31;;;;;;;63.65;51.67;;;25.30;54.20;;;;;;4935637;28;90164;-55
2022/08/30 09:13:58;;;;;;;62.33;51.58;;;25.40;54.30;;;;;;4934290;28;89804;-57
2022/08/30 09:16:45;;;;;;;63.13;51.88;;;25.40;54.20;;;;;;4930706;28;91639;-56
2022/08/30 09:19:25;;;;;;;63.83;51.75;;;25.40;54.20;;;;;;4931660;28;90310;-56
2022/08/30 09:22:00;;;;;;;63.60;51.85;;;25.40;54.10;;;;;;4932616;28;89008;-57
2022/08/30 09:24:25;;;;;;;63.20;51.78;;;25.40;54.10;;;;;;4934679;28;95685;-57
2022/08/30 09:26:51;;;;;;;63.72;51.67;;;25.40;54.10;;;;;;4930629;28;90119;-57
2022/08/30 09:29:18;;;;;;;64.75;51.85;;;25.40;54.10;;;;;;4924022;28;91036;-57
2022/08/30 09:31:52;;;;;;;63.03;51.97;;;25.50;54.10;;;;;;4936164;28;90863;-56
2022/08/30 09:34:21;;;;;;;65.45;52.15;;;25.50;54.10;;;;;;4934583;28;90379;-56
2022/08/30 09:36:52;;;;;;;63.97;51.88;;;25.50;54.00;;;;;;4929430;28;89858;-57
2022/08/30 09:39:19;;;;;;;64.65;51.80;;;25.50;54.00;;;;;;4930026;28;93448;-55
2022/08/30 09:41:48;;;;;;;64.03;51.85;;;25.60;53.90;;;;;;4935193;28;90240;-55
2022/08/30 09:44:21;;;;;;;64.88;52.35;;;25.50;53.80;;;;;;4940363;28;89596;-56
2022/08/30 09:46:47;;;;;;;64.75;52.15;;;25.60;53.80;;;;;;4935661;28;88989;-57
2022/08/30 09:49:40;;;;;;;63.22;51.92;;;25.60;53.70;;;;;;4927610;28;92991;-55
2022/08/30 09:52:24;;;;;;;64.85;51.75;;;25.70;53.70;;;;;;4928245;28;90456;-57
2022/08/30 09:55:19;;;;;;;64.10;51.65;;;25.60;53.60;;;;;;4933589;28;93706;-56
2022/08/30 09:57:54;;;;;;;63.17;52.25;;;25.60;53.60;;;;;;4935506;28;90566;-55
2022/08/30 10:00:23;;;;;;;63.55;51.92;;;25.70;53.60;;;;;;4935791;28;90551;-56
2022/08/30 10:02:58;;;;;;;64.90;52.28;;;25.70;53.50;;;;;;4933121;28;89799;-56
2022/08/30 10:05:37;;;;;;;64.15;51.92;;;25.70;53.50;;;;;;4941287;28;89587;-55
2022/08/30 10:08:22;;;;;;;67.80;52.30;;;25.70;53.50;;;;;;4933899;28;91403;-56
2022/08/30 10:11:09;;;;;;;64.05;51.78;;;25.70;53.30;;;;;;4933001;28;90429;-56
2022/08/30 10:14:01;;;;;;;65.20;52.05;;;25.70;53.30;;;;;;4938047;28;90477;-52
2022/08/30 10:17:03;;;;;;;65.68;51.95;;;25.80;53.40;;;;;;4940196;28;89964;-56
2022/08/30 10:20:01;;;;;;;63.78;51.97;;;25.80;53.30;;;;;;4934979;28;90000;-57
2022/08/30 10:22:35;;;;;;;63.58;52.22;;;25.80;53.30;;;;;;4934511;28;90978;-57
2022/08/30 10:25:08;;;;;;;64.05;52.05;;;25.80;53.30;;;;;;4934648;28;90966;-57
2022/08/30 10:28:00;;;;;;;64.32;52.25;;;25.80;53.30;;;;;;4928378;28;90050;-57
2022/08/30 10:30:27;;;;;;;66.80;52.33;;;25.80;53.20;;;;;;4932003;28;93523;-57
2022/08/30 10:33:14;;;;;;;65.35;52.15;;;25.80;53.20;;;;;;4930854;28;96163;-55
2022/08/30 10:35:58;;;;;;;64.93;51.78;;;25.80;53.00;;;;;;4932358;28;89902;-55
2022/08/30 10:38:32;;;;;;;63.58;51.90;;;25.90;53.00;;;;;;4930777;28;90431;-57
2022/08/30 10:41:16;;;;;;;64.82;52.13;;;25.90;53.00;;;;;;4935595;28;89345;-56
2022/08/30 10:44:04;;;;;;;64.45;52.30;;;25.90;52.90;;;;;;4927285;28;90401;-57
2022/08/30 10:47:01;;;;;;;64.40;52.47;;;25.90;52.90;;;;;;4926371;28;91435;-55
2022/08/30 10:49:32;;;;;;;63.85;51.85;;;25.90;52.90;;;;;;4926954;28;91777;-55
2022/08/30 10:52:07;;;;;;;;;;;25.90;52.80;;;;;;4942257;28;90330;-56
2022/08/30 10:54:43;;;;;;;64.38;52.13;;;25.90;52.80;;;;;;4937786;28;90321;-56
2022/08/30 10:57:09;;;;;;;64.20;52.13;;;26.00;52.70;;;;;;4931025;28;90029;-55
2022/08/30 10:59:44;;;;;;;64.15;52.53;;;26.00;52.70;;;;;;4920703;28;89892;-57
2022/08/30 11:02:42;;;;;;;63.17;52.25;;;26.00;52.60;;;;;;4930641;28;89745;-58
2022/08/30 11:05:30;;;;;;;65.28;52.40;;;26.00;52.60;;;;;;4946925;28;90385;-57
2022/08/30 11:08:22;;;;;;;64.88;52.20;;;26.00;52.40;;;;;;4916827;28;92982;-57
2022/08/30 11:11:23;;;;;;;65.25;52.05;;;26.00;52.40;;;;;;4947584;28;90370;-56
2022/08/30 11:13:49;;;;;;;66.13;52.10;;;26.00;52.40;;;;;;4927226;28;90439;-57
2022/08/30 11:16:18;;;;;;;64.22;52.20;;;26.00;52.30;;;;;;4928574;28;95935;-57
2022/08/30 11:18:53;;;;;;;65.05;52.42;;;26.00;52.30;;;;;;4930879;28;92049;-56
2022/08/30 11:21:31;;;;;;;66.18;52.08;;;26.10;52.30;;;;;;4926148;28;92633;-55
2022/08/30 11:24:22;;;;;;;65.60;52.40;;;26.00;52.20;;;;;;4930268;28;90024;-57
2022/08/30 11:26:47;;;;;;;65.68;52.20;;;26.10;52.30;;;;;;4936659;28;90685;-56
2022/08/30 11:29:33;;;;;;;66.30;52.33;;;26.10;52.20;;;;;;4929305;28;90899;-53
2022/08/30 11:32:11;;;;;;;64.78;52.35;;;26.10;52.20;;;;;;4921103;28;93292;-57
2022/08/30 11:34:45;;;;;;;64.00;52.20;;;26.10;52.20;;;;;;4927499;28;89135;-57
2022/08/30 11:37:38;;;;;;;67.05;52.35;;;26.10;52.10;;;;;;4934777;28;90271;-53
2022/08/30 11:40:09;;;;;;;63.60;52.13;;;26.20;52.20;;;;;;4936579;28;90197;-55
2022/08/30 11:42:37;;;;;;;63.80;52.25;;;26.20;52.10;;;;;;4933395;28;91260;-55
2022/08/30 11:45:21;;;;;;;65.53;52.13;;;26.20;52.10;;;;;;4934316;28;89955;-57
2022/08/30 11:47:55;;;;;;;66.30;52.42;;;26.20;52.00;;;;;;4935354;28;91029;-57
2022/08/30 11:50:35;;;;;;;66.10;52.28;;;26.20;52.10;;;;;;4935275;28;93469;-56
2022/08/30 11:53:20;;;;;;;67.32;52.50;;;26.20;52.30;;;;;;4931503;28;91875;-56
2022/08/30 11:55:54;;;;;;;64.10;52.20;;;26.20;52.40;;;;;;4933777;28;90020;-57
2022/08/30 11:58:33;;;;;;;64.20;52.33;;;26.30;52.20;;;;;;4911803;28;91500;-57
2022/08/30 12:01:25;;;;;;;67.47;52.63;;;26.30;53.10;;;;;;4942910;28;90881;-54
2022/08/30 12:03:57;;;;;;;67.75;52.90;;;26.30;55.50;;;;;;4934739;28;91457;-57
2022/08/30 12:06:40;;;;;;;65.78;52.35;;;26.30;57.50;;;;;;4937454;28;93137;-55
2022/08/30 12:09:27;;;;;;;66.03;52.60;;;26.30;59.00;;;;;;4939157;28;90985;-56
2022/08/30 12:12:06;;;;;;;66.00;52.53;;;26.30;59.00;;;;;;4953157;28;95123;-56
2022/08/30 12:14:46;;;;;;;64.15;52.58;;;26.30;58.50;;;;;;4933037;28;90261;-55
2022/08/30 12:20:46;;;;;;;66.93;52.63;;;26.40;56.90;;;;;;4936361;28;90630;-57
2022/08/30 12:23:38;;;;;;;65.53;52.20;;;26.40;56.10;;;;;;4927419;28;96002;-57
2022/08/30 12:26:19;;;;;;;67.38;52.90;;;26.40;56.00;;;;;;4938955;28;89825;-55
2022/08/30 12:28:47;;;;;;;69.35;54.17;;;26.50;56.30;;;;;;4939884;28;88904;-56
2022/08/30 12:31:25;;;;;;;69.90;53.58;;;26.50;55.70;;;;;;4939143;28;90689;-54
2022/08/30 12:33:58;;;;;;;69.28;53.28;;;26.50;55.00;;;;;;4934517;28;94341;-56
2022/08/30 12:36:30;;;;;;;69.80;53.70;;;26.50;55.00;;;;;;4925456;28;91334;-56
2022/08/30 12:39:09;;;;;;;67.53;53.38;;;26.50;54.70;;;;;;4928918;28;90692;-55
2022/08/30 12:41:35;;;;;;;66.82;53.05;;;26.50;54.40;;;;;;4939855;28;90140;-54
2022/08/30 12:44:02;;;;;;;71.70;54.00;;;26.50;54.20;;;;;;4934486;28;90081;-56
2022/08/30 12:46:29;;;;;;;69.70;53.72;;;26.50;54.10;;;;;;4928138;28;93620;-55
2022/08/30 12:48:55;;;;;;;70.32;54.08;;;26.50;53.70;;;;;;4931306;28;89999;-56
2022/08/30 12:51:35;;;;;;;73.47;53.90;;;26.50;53.70;;;;;;4943882;28;91215;-54